My Meet Scores
Kelly Quinn, American Gymnastics Training Center - MyMeetScores.com
Top100 | Top Teams | Upcoming Meets | Completed Meets | Latest | Add Scores | Help| Support | Bookmark and Share

Kelly Quinn, American Gymnastics Training Center
Personal Bests
LevelVault BarsBeamFloorAA
XG9.4009.200 9.4009.60037.450
XS9.2009.525 9.6009.40037.100
Meet Scores
Date Meet Team Session Level Division Vault Bars Beam Floor AA
2019-04-27 Xcel Gold, Platinum, Diamond State Championsh American Gymnastics Training Center 2 XG Sr C 9.225 13 9.050 9T 8.200 53T 9.125 15 35.600 20
2019-02-22 Pink Invitational ~ Gymnasts Unite American Gymnastics Training Center UC1 XG 14 yrs. 8.850 4 9.200 2T 9.400 2 9.250 4 36.700 3
2019-02-16 Chelsea Piers Winter Challenge American Gymnastics Training Center F3 XG Older 9.400 4 9.200 2 9.250 4 9.600 1 37.450 1
2019-01-25 Kinetic Kids Invitational 2019 American Gymnastics Training Center 6 XG Sr B 9.125 5 8.650 7T 9.300 2 9.000 7T 36.075 4
2019-01-18 22nd Annual Star Struck Invitational American Gymnastics Training Center 5D XG Sr B 8.500 7T 8.600 6 8.900 8T 8.725 8 34.725 7
2018-12-08 American Gymnastics Invitational American Gymnastics Training Center 1 XG Senior 8.650 6 8.200 8 8.150 9 9.050 3T 34.050 8
2018-11-02 Muriel Grossfeld Invitational American Gymnastics Training Center 6 XG Sr B 8.750 10T 8.900 4 9.300 3 9.000 4T 35.950 5
2018-05-05 2018 CT XCEL Silver State Championships American Gymnastics Training Center 4 XS Sr G 9.200 5T 9.125 3T 9.375 1 9.400 2 37.100 2
2018-02-16 Chelsea Piers Winter Challenge American Gymnastics Training Center F-2 XS SR 9.175 5 9.525 1 9.200 2 9.150 1 37.050 1
2018-02-09 Team Challenge 2018 American Gymnastics Training Center 04B XS Sr B 9.075 3 9.150 4 9.575 3 8.925 8T 36.725 3
2018-01-26 2018 American Invitational American Gymnastics Training Center 3B XS Older 8.500 9* 9.400 3 9.600 2 9.000 6T 36.500 3T
2018-01-19 Beauty And The Beast Invitational American Gymnastics Training Center 14 XS E 8.550 10 9.450 3 9.275 4 8.900 12 36.175 6
2017-05-06 2017 Connecticut XS State Championships American Gymnastics Training Center 6 XS Sr C 8.700 10 9.100 6 9.000 5 9.400 3 36.200 6
2017-03-02 2017 Holiday Costume Cup American Gymnastics Training Center 4 XS Older 9.000 7 9.200 6 9.500 2 8.900 15T 36.600 5
2017-02-10 Team Challenge 2017 American Gymnastics Training Center 06B XS Senior 8.850 7 9.100 6 8.375 8 9.000 7 35.325 7
2017-01-27 24th Annual American Invitational American Gymnastics Training Center 2A XS Senior 8.350 13T 9.200 4 8.700 16 8.850 13 35.100 14
2017-01-13 20th Annual Star Struck Invitational American Gymnastics Training Center 2D XS Sr B 8.400 14 9.000 4T 8.000 15 8.850 10T 34.250 12
2016-04-30 2016 Connecticut XS State Championships American Gymnastics Training Center All XS JrD 7.800 12 9.500 2 8.900 12 8.550 13T 34.750 10
2016-02-13 Chelsea Piers Winter Challenge American Gymnastics Training Center F1 XS CH B 8.000 12T 8.300 14 8.700 12T 8.600 16 33.600 15
2016-02-05 Lets Make A Deal American Gymnastics Training Center 9 XS Nickle 8.750 45 8.400 49T 8.800 37T 8.950 31 34.900 41
2016-01-28 2016 American Invitational American Gymnastics Training Center 8A XS Junior 7.550 16 9.250 8T 8.850 15 9.150 11T 34.800 15
Click here to view our personalized
"Celebrate Your Season"
2018-19 Collection

www.lazysuits.com